createdAt,value
2023-04-01T00:04:21.759Z,87.64
2023-04-01T00:09:23.231Z,87.86
2023-04-01T00:14:24.756Z,88.34
2023-04-01T00:19:26.523Z,88.88
2023-04-01T00:24:28.000Z,88.93
2023-04-01T00:29:31.497Z,88.54
2023-04-01T00:34:32.972Z,88.41
2023-04-01T00:39:35.554Z,88.23
2023-04-01T00:44:38.263Z,88.02
2023-04-01T00:49:46.091Z,87.60
2023-04-01T00:54:51.140Z,87.21
2023-04-01T00:59:55.873Z,87.27
2023-04-01T01:04:57.304Z,87.06
2023-04-01T01:10:17.807Z,86.92
2023-04-01T01:15:26.770Z,86.94
2023-04-01T01:20:34.207Z,86.62
2023-04-01T01:26:03.035Z,86.53
2023-04-01T01:31:18.592Z,86.24
2023-04-01T01:36:22.070Z,86.23
2023-04-01T01:41:27.648Z,86.47
2023-04-01T01:46:31.770Z,86.30
2023-04-01T01:51:33.413Z,86.14
2023-04-01T01:56:36.334Z,86.15
2023-04-01T02:01:43.111Z,86.40
2023-04-01T02:06:54.737Z,86.52
2023-04-01T02:12:05.036Z,86.51
2023-04-01T02:17:10.376Z,86.51
2023-04-01T02:22:17.436Z,86.52
2023-04-01T02:27:19.976Z,86.75
2023-04-01T02:32:21.815Z,86.58
2023-04-01T02:37:24.128Z,86.94
2023-04-01T02:42:25.991Z,86.97
2023-04-01T02:47:27.515Z,86.69
2023-04-01T02:52:30.339Z,86.76
2023-04-01T02:57:31.844Z,86.81
2023-04-01T03:02:33.440Z,86.88
2023-04-01T03:07:35.003Z,86.70
2023-04-01T03:12:36.948Z,86.54
2023-04-01T03:17:39.553Z,86.37
2023-04-01T03:22:42.969Z,86.62
2023-04-01T03:27:44.627Z,86.14
2023-04-01T03:32:46.089Z,86.01
2023-04-01T03:37:47.783Z,86.12
2023-04-01T03:42:49.980Z,86.49
2023-04-01T03:47:51.506Z,86.72
2023-04-01T03:52:52.931Z,86.53
2023-04-01T03:57:54.372Z,87.90
2023-04-01T04:02:57.545Z,88.63
2023-04-01T04:07:59.143Z,90.73
2023-04-01T04:13:00.771Z,89.97
2023-04-01T04:18:02.314Z,89.81
2023-04-01T04:23:03.789Z,90.31
2023-04-01T04:28:05.280Z,90.57
2023-04-01T04:33:06.746Z,91.29
2023-04-01T04:38:08.206Z,92.46
2023-04-01T04:43:14.678Z,92.13
2023-04-01T04:48:19.549Z,92.29
2023-04-01T04:53:21.167Z,92.76
2023-04-01T04:58:22.816Z,92.88
2023-04-01T05:03:24.491Z,92.99
2023-04-01T05:08:26.134Z,93.23
2023-04-01T05:13:28.198Z,94.20
2023-04-01T05:18:29.671Z,96.31
2023-04-01T05:23:33.146Z,94.56
2023-04-01T05:28:34.620Z,94.40
2023-04-01T05:33:36.275Z,94.79
2023-04-01T05:38:37.968Z,94.82
2023-04-01T05:43:40.675Z,95.30
2023-04-01T05:48:42.141Z,96.56
2023-04-01T05:53:43.963Z,95.83
2023-04-01T05:58:51.262Z,95.34
2023-04-01T06:03:52.950Z,95.61
2023-04-01T06:08:57.530Z,96.15
2023-04-01T06:14:42.963Z,95.09
2023-04-01T06:19:53.108Z,96.55
2023-04-01T06:25:19.053Z,96.52
2023-04-01T06:30:49.671Z,96.64
2023-04-01T06:35:59.708Z,96.00
2023-04-01T06:41:04.405Z,97.09
2023-04-01T06:46:11.857Z,96.20
2023-04-01T06:51:19.110Z,96.25
2023-04-01T06:56:23.796Z,96.70
2023-04-01T07:01:33.705Z,96.52
2023-04-01T07:06:48.045Z,97.59
2023-04-01T07:11:50.155Z,99.93
2023-04-01T07:17:02.216Z,97.90
2023-04-01T07:22:36.838Z,98.67
2023-04-01T07:27:38.260Z,99.37
2023-04-01T07:32:53.744Z,98.40
2023-04-01T07:38:41.390Z,96.30
2023-04-01T07:44:08.480Z,96.38
2023-04-01T07:49:22.186Z,95.11
2023-04-01T07:54:25.093Z,97.48
2023-04-01T07:59:34.483Z,95.73
2023-04-01T08:04:51.867Z,96.99
2023-04-01T08:10:21.217Z,97.58
2023-04-01T08:15:28.653Z,99.08
2023-04-01T08:20:48.426Z,98.21
2023-04-01T08:25:56.659Z,99.46
2023-04-01T08:31:13.545Z,96.26
2023-04-01T08:36:20.201Z,95.87
2023-04-01T08:41:42.105Z,95.54
2023-04-01T08:47:05.243Z,95.88
2023-04-01T08:52:19.514Z,96.17
2023-04-01T08:57:58.691Z,93.34
2023-04-01T09:03:21.808Z,93.36
2023-04-01T09:08:44.550Z,92.24
2023-04-01T09:14:00.836Z,90.61
2023-04-01T09:19:26.639Z,89.30
2023-04-01T09:24:44.938Z,90.59
2023-04-01T09:30:08.311Z,90.14
2023-04-01T09:35:15.681Z,91.37
2023-04-01T09:40:24.351Z,91.12
2023-04-01T09:45:47.307Z,88.66
2023-04-01T09:51:22.142Z,87.03
2023-04-01T09:56:33.789Z,85.28
2023-04-01T10:02:13.165Z,84.64
2023-04-01T10:07:33.203Z,84.84
2023-04-01T10:12:46.619Z,83.55
2023-04-01T10:18:09.260Z,81.53
2023-04-01T10:23:49.504Z,81.71
2023-04-01T10:29:12.013Z,79.20
2023-04-01T10:34:49.396Z,77.68
2023-04-01T10:40:26.983Z,77.95
2023-04-01T10:45:50.488Z,78.06
2023-04-01T10:51:10.562Z,80.01
2023-04-01T10:56:35.025Z,80.86
2023-04-01T11:02:10.031Z,83.02
2023-04-01T11:07:29.427Z,85.79
2023-04-01T11:12:49.386Z,85.89
2023-04-01T11:18:09.484Z,86.94
2023-04-01T11:23:21.144Z,87.10
2023-04-01T11:28:44.260Z,85.69
2023-04-01T11:34:02.843Z,86.95
2023-04-01T11:39:22.647Z,86.03
2023-04-01T11:44:28.432Z,86.17
2023-04-01T11:49:57.937Z,86.16
2023-04-01T11:55:24.212Z,85.75
2023-04-01T12:00:34.182Z,86.03
2023-04-01T12:05:48.702Z,84.91
2023-04-01T12:11:02.774Z,84.46
2023-04-01T12:16:13.402Z,83.99
2023-04-01T12:21:32.996Z,85.16
2023-04-01T12:27:11.478Z,86.59
2023-04-01T12:32:31.866Z,88.05
2023-04-01T12:38:03.618Z,84.85
2023-04-01T12:43:42.431Z,83.37
2023-04-01T12:48:54.794Z,84.18
2023-04-01T12:54:10.345Z,84.02
2023-04-01T12:59:55.892Z,83.30
2023-04-01T13:05:24.346Z,83.96
2023-04-01T13:11:01.384Z,84.14
2023-04-01T13:16:24.055Z,84.78
2023-04-01T13:21:52.728Z,85.55
2023-04-01T13:27:13.805Z,86.24
2023-04-01T13:32:44.271Z,87.79
2023-04-01T13:38:18.304Z,88.94
2023-04-01T13:43:26.986Z,88.71
2023-04-01T13:48:37.846Z,89.44
2023-04-01T13:53:48.323Z,87.95
2023-04-01T13:59:12.489Z,88.03
2023-04-01T14:04:45.662Z,88.67
2023-04-01T14:09:52.757Z,89.78
2023-04-01T14:15:00.214Z,88.38
2023-04-01T14:20:26.714Z,87.42
2023-04-01T14:25:56.251Z,85.70
2023-04-01T14:31:19.353Z,85.54
2023-04-01T14:36:48.203Z,85.82
2023-04-01T14:42:06.122Z,85.38
2023-04-01T14:47:22.990Z,85.82
2023-04-01T14:52:37.340Z,87.02
2023-04-01T14:57:38.884Z,87.41
2023-04-01T15:03:02.178Z,88.18
2023-04-01T15:08:10.695Z,88.66
2023-04-01T15:13:45.617Z,89.70
2023-04-01T15:19:11.730Z,90.14
2023-04-01T15:24:21.848Z,90.32
2023-04-01T15:29:43.841Z,89.77
2023-04-01T15:34:56.612Z,89.06
2023-04-01T15:40:23.566Z,89.96
2023-04-01T15:45:24.912Z,91.39
2023-04-01T15:50:32.474Z,91.73
2023-04-01T15:55:55.846Z,91.43
2023-04-01T16:01:04.196Z,91.75
2023-04-01T16:06:35.261Z,89.59
2023-04-01T16:11:48.933Z,90.17
2023-04-01T16:17:21.466Z,90.40
2023-04-01T16:22:46.162Z,90.66
2023-04-01T16:27:59.599Z,90.45
2023-04-01T16:33:01.467Z,90.02
2023-04-01T16:38:28.278Z,89.56
2023-04-01T16:43:40.293Z,89.56
2023-04-01T16:49:18.018Z,89.90
2023-04-01T16:54:22.107Z,90.21
2023-04-01T16:59:30.309Z,90.58
2023-04-01T17:04:39.440Z,90.51
2023-04-01T17:09:59.651Z,90.45
2023-04-01T17:15:23.392Z,91.04
2023-04-01T17:20:38.669Z,91.44
2023-04-01T17:25:50.097Z,91.59
2023-04-01T17:30:57.310Z,91.86
2023-04-01T17:36:26.359Z,91.40
2023-04-01T17:41:37.203Z,92.51
2023-04-01T17:47:29.471Z,92.65
2023-04-01T17:52:41.020Z,93.17
2023-04-01T17:57:54.371Z,93.10
2023-04-01T18:02:56.018Z,93.38
2023-04-01T18:08:34.202Z,93.72
2023-04-01T18:13:38.331Z,92.82
2023-04-01T18:19:17.595Z,92.77
2023-04-01T18:24:45.048Z,93.29
2023-04-01T18:30:00.732Z,92.56
2023-04-01T18:35:29.881Z,92.21
2023-04-01T18:40:35.281Z,92.11
2023-04-01T18:45:41.708Z,93.24
2023-04-01T18:50:57.884Z,93.06
2023-04-01T18:56:06.299Z,94.88
2023-04-01T19:01:35.856Z,93.88
2023-04-01T19:06:40.292Z,94.86
2023-04-01T19:11:55.547Z,93.29
2023-04-01T19:17:27.109Z,93.40
2023-04-01T19:22:35.690Z,92.37
2023-04-01T19:27:47.149Z,92.50
2023-04-01T19:33:23.179Z,92.59
2023-04-01T19:38:37.614Z,92.01
2023-04-01T19:43:53.869Z,92.84
2023-04-01T19:49:19.549Z,92.92
2023-04-01T19:54:20.906Z,92.95
2023-04-01T19:59:38.339Z,93.98
2023-04-01T20:04:43.120Z,94.60
2023-04-01T20:10:07.246Z,93.40
2023-04-01T20:15:30.865Z,94.78
2023-04-01T20:20:34.121Z,94.83
2023-04-01T20:25:53.873Z,96.29
2023-04-01T20:31:36.230Z,95.40
2023-04-01T20:36:57.003Z,95.60
2023-04-01T20:42:17.932Z,96.59
2023-04-01T20:47:31.483Z,96.35
2023-04-01T20:52:51.494Z,95.86
2023-04-01T20:58:20.561Z,95.98
2023-04-01T21:03:37.225Z,95.34
2023-04-01T21:08:58.066Z,95.46
2023-04-01T21:14:28.690Z,95.78
2023-04-01T21:19:42.267Z,95.59
2023-04-01T21:24:49.691Z,95.34
2023-04-01T21:29:56.755Z,96.50
2023-04-01T21:35:23.125Z,95.77
2023-04-01T21:41:02.034Z,96.95
2023-04-01T21:46:29.495Z,95.80
2023-04-01T21:52:08.059Z,95.50
2023-04-01T21:57:15.333Z,95.69
2023-04-01T22:02:22.811Z,95.46
2023-04-01T22:07:29.607Z,96.18
2023-04-01T22:12:48.924Z,96.22
2023-04-01T22:18:14.968Z,96.22
2023-04-01T22:23:31.798Z,96.25
2023-04-01T22:28:56.154Z,95.78
2023-04-01T22:34:17.864Z,95.95
2023-04-01T22:39:44.574Z,95.38
2023-04-01T22:44:46.090Z,95.50
2023-04-01T22:50:17.011Z,95.14
2023-04-01T22:55:24.988Z,95.23
2023-04-01T23:00:44.300Z,95.03
2023-04-01T23:06:06.204Z,95.23
2023-04-01T23:11:11.417Z,94.43
2023-04-01T23:16:13.813Z,94.19
2023-04-01T23:21:22.816Z,93.87
2023-04-01T23:26:41.533Z,92.60
2023-04-01T23:31:45.962Z,93.71
2023-04-01T23:36:50.882Z,93.42
2023-04-01T23:41:56.009Z,92.25
2023-04-01T23:47:00.266Z,90.92
2023-04-01T23:52:31.629Z,91.72
2023-04-01T23:57:36.128Z,91.53
